sensor_id;sensor_type;location;lat;lon;timestamp;pressure;altitude;pressure_sealevel;temperature;humidity
47374;BME280;33123;50.118;10.272;2023-06-10T00:01:13;97481.22;;;18.55;58.20
47374;BME280;33123;50.118;10.272;2023-06-10T00:03:40;97482.59;;;18.52;58.05
47374;BME280;33123;50.118;10.272;2023-06-10T00:06:08;97482.78;;;18.56;58.03
47374;BME280;33123;50.118;10.272;2023-06-10T00:08:35;97482.78;;;18.56;58.13
47374;BME280;33123;50.118;10.272;2023-06-10T00:11:02;97484.66;;;18.55;58.14
47374;BME280;33123;50.118;10.272;2023-06-10T00:13:29;97479.63;;;18.54;58.25
47374;BME280;33123;50.118;10.272;2023-06-10T00:15:57;97484.28;;;18.48;58.43
47374;BME280;33123;50.118;10.272;2023-06-10T00:18:24;97477.06;;;18.48;58.59
47374;BME280;33123;50.118;10.272;2023-06-10T00:24:32;97481.06;;;18.37;59.14
47374;BME280;33123;50.118;10.272;2023-06-10T00:26:59;97487.19;;;18.38;59.23
47374;BME280;33123;50.118;10.272;2023-06-10T00:29:25;97481.66;;;18.34;59.24
47374;BME280;33123;50.118;10.272;2023-06-10T00:31:53;97486.03;;;18.30;59.23
47374;BME280;33123;50.118;10.272;2023-06-10T00:34:22;97485.03;;;18.26;59.52
47374;BME280;33123;50.118;10.272;2023-06-10T00:36:50;97490.56;;;18.30;59.08
47374;BME280;33123;50.118;10.272;2023-06-10T00:39:16;97483.97;;;18.27;59.32
47374;BME280;33123;50.118;10.272;2023-06-10T00:41:43;97485.03;;;18.26;59.29
47374;BME280;33123;50.118;10.272;2023-06-10T00:44:10;97485.84;;;18.27;59.51
47374;BME280;33123;50.118;10.272;2023-06-10T00:46:36;97488.31;;;18.23;59.25
47374;BME280;33123;50.118;10.272;2023-06-10T00:49:05;97480.31;;;18.23;59.61
47374;BME280;33123;50.118;10.272;2023-06-10T00:51:32;97482.47;;;18.21;59.61
47374;BME280;33123;50.118;10.272;2023-06-10T00:54:02;97492.09;;;18.22;59.35
47374;BME280;33123;50.118;10.272;2023-06-10T00:56:29;97485.66;;;18.23;59.32
47374;BME280;33123;50.118;10.272;2023-06-10T00:58:55;97485.34;;;18.25;59.08
47374;BME280;33123;50.118;10.272;2023-06-10T01:01:22;97486.63;;;18.27;59.22
47374;BME280;33123;50.118;10.272;2023-06-10T01:03:49;97488.22;;;18.28;59.35
47374;BME280;33123;50.118;10.272;2023-06-10T01:06:24;97487.59;;;18.31;59.42
47374;BME280;33123;50.118;10.272;2023-06-10T01:09:02;97486.03;;;18.30;59.42
47374;BME280;33123;50.118;10.272;2023-06-10T01:11:37;97481.09;;;18.24;59.46
47374;BME280;33123;50.118;10.272;2023-06-10T01:14:07;97479.63;;;18.17;59.61
47374;BME280;33123;50.118;10.272;2023-06-10T01:16:35;97485.56;;;18.14;60.12
47374;BME280;33123;50.118;10.272;2023-06-10T01:19:02;97489.00;;;18.15;60.05
47374;BME280;33123;50.118;10.272;2023-06-10T01:21:30;97480.34;;;18.09;60.22
47374;BME280;33123;50.118;10.272;2023-06-10T01:23:57;97483.03;;;17.96;60.81
47374;BME280;33123;50.118;10.272;2023-06-10T01:26:28;97487.91;;;17.93;60.83
47374;BME280;33123;50.118;10.272;2023-06-10T01:28:58;97485.50;;;17.92;60.83
47374;BME280;33123;50.118;10.272;2023-06-10T01:31:33;97480.09;;;17.83;61.26
47374;BME280;33123;50.118;10.272;2023-06-10T01:34:07;97483.75;;;17.74;61.51
47374;BME280;33123;50.118;10.272;2023-06-10T01:36:37;97487.50;;;17.73;61.45
47374;BME280;33123;50.118;10.272;2023-06-10T01:39:05;97487.75;;;17.71;61.44
47374;BME280;33123;50.118;10.272;2023-06-10T01:41:34;97486.47;;;17.68;61.45
47374;BME280;33123;50.118;10.272;2023-06-10T01:44:01;97490.53;;;17.66;61.24
47374;BME280;33123;50.118;10.272;2023-06-10T01:46:27;97497.72;;;17.65;61.00
47374;BME280;33123;50.118;10.272;2023-06-10T01:48:54;97490.53;;;17.66;61.22
47374;BME280;33123;50.118;10.272;2023-06-10T01:51:21;97489.94;;;17.69;60.46
47374;BME280;33123;50.118;10.272;2023-06-10T01:53:49;97489.88;;;17.74;60.45
47374;BME280;33123;50.118;10.272;2023-06-10T01:56:15;97496.19;;;17.78;60.34
47374;BME280;33123;50.118;10.272;2023-06-10T01:58:44;97490.44;;;17.85;60.15
47374;BME280;33123;50.118;10.272;2023-06-10T02:01:11;97494.91;;;17.89;60.34
47374;BME280;33123;50.118;10.272;2023-06-10T02:03:38;97495.47;;;17.86;60.00
47374;BME280;33123;50.118;10.272;2023-06-10T02:06:04;97498.75;;;17.83;60.36
47374;BME280;33123;50.118;10.272;2023-06-10T02:08:31;97503.31;;;17.83;60.42
47374;BME280;33123;50.118;10.272;2023-06-10T02:10:59;97498.84;;;17.78;60.47
47374;BME280;33123;50.118;10.272;2023-06-10T02:13:25;97507.50;;;17.70;60.43
47374;BME280;33123;50.118;10.272;2023-06-10T02:15:52;97511.75;;;17.71;60.38
47374;BME280;33123;50.118;10.272;2023-06-10T02:18:20;97506.66;;;17.75;59.89
47374;BME280;33123;50.118;10.272;2023-06-10T02:20:47;97514.66;;;17.75;60.50
47374;BME280;33123;50.118;10.272;2023-06-10T02:23:13;97511.19;;;17.74;60.04
47374;BME280;33123;50.118;10.272;2023-06-10T02:25:40;97515.94;;;17.77;60.18
47374;BME280;33123;50.118;10.272;2023-06-10T02:28:08;97518.09;;;17.75;60.17
47374;BME280;33123;50.118;10.272;2023-06-10T02:30:35;97505.06;;;17.74;60.11
47374;BME280;33123;50.118;10.272;2023-06-10T02:33:02;97508.09;;;17.67;60.82
47374;BME280;33123;50.118;10.272;2023-06-10T02:35:28;97513.22;;;17.63;60.69
47374;BME280;33123;50.118;10.272;2023-06-10T02:37:55;97509.78;;;17.63;60.49
47374;BME280;33123;50.118;10.272;2023-06-10T02:40:21;97499.81;;;17.55;60.82
47374;BME280;33123;50.118;10.272;2023-06-10T02:42:48;97503.06;;;17.52;60.84
47374;BME280;33123;50.118;10.272;2023-06-10T02:45:16;97508.97;;;17.49;60.90
47374;BME280;33123;50.118;10.272;2023-06-10T02:47:43;97504.72;;;17.48;61.18
47374;BME280;33123;50.118;10.272;2023-06-10T02:50:09;97509.56;;;17.46;61.20
47374;BME280;33123;50.118;10.272;2023-06-10T02:52:37;97504.91;;;17.37;61.63
47374;BME280;33123;50.118;10.272;2023-06-10T02:55:05;97512.31;;;17.27;61.84
47374;BME280;33123;50.118;10.272;2023-06-10T02:57:32;97511.31;;;17.23;61.89
47374;BME280;33123;50.118;10.272;2023-06-10T02:59:58;97518.53;;;17.22;61.94
47374;BME280;33123;50.118;10.272;2023-06-10T03:02:26;97513.47;;;17.21;61.85
47374;BME280;33123;50.118;10.272;2023-06-10T03:04:54;97507.16;;;17.17;61.63
47374;BME280;33123;50.118;10.272;2023-06-10T03:07:21;97510.09;;;17.15;61.64
47374;BME280;33123;50.118;10.272;2023-06-10T03:09:48;97505.56;;;17.15;61.55
47374;BME280;33123;50.118;10.272;2023-06-10T03:12:15;97497.00;;;17.05;61.47
47374;BME280;33123;50.118;10.272;2023-06-10T03:14:42;97501.41;;;17.09;61.56
47374;BME280;33123;50.118;10.272;2023-06-10T03:17:08;97505.47;;;17.07;61.38
47374;BME280;33123;50.118;10.272;2023-06-10T03:19:36;97504.97;;;17.05;61.29
47374;BME280;33123;50.118;10.272;2023-06-10T03:22:08;97508.91;;;17.07;61.10
47374;BME280;33123;50.118;10.272;2023-06-10T03:24:35;97505.94;;;17.09;60.92
47374;BME280;33123;50.118;10.272;2023-06-10T03:27:06;97507.75;;;17.13;60.99
47374;BME280;33123;50.118;10.272;2023-06-10T03:29:32;97511.72;;;17.16;60.69
47374;BME280;33123;50.118;10.272;2023-06-10T03:31:59;97507.16;;;17.17;60.99
47374;BME280;33123;50.118;10.272;2023-06-10T03:34:26;97505.69;;;17.24;60.69
47374;BME280;33123;50.118;10.272;2023-06-10T03:36:53;97506.78;;;17.23;60.22
47374;BME280;33123;50.118;10.272;2023-06-10T03:39:20;97515.16;;;17.30;60.13
47374;BME280;33123;50.118;10.272;2023-06-10T03:41:47;97508.75;;;17.31;60.16
47374;BME280;33123;50.118;10.272;2023-06-10T03:44:13;97510.84;;;17.34;60.01
47374;BME280;33123;50.118;10.272;2023-06-10T03:46:40;97504.44;;;17.35;59.65
47374;BME280;33123;50.118;10.272;2023-06-10T03:49:06;97510.16;;;17.42;59.52
47374;BME280;33123;50.118;10.272;2023-06-10T03:51:35;97511.94;;;17.47;59.42
47374;BME280;33123;50.118;10.272;2023-06-10T03:54:03;97503.06;;;17.52;59.59
47374;BME280;33123;50.118;10.272;2023-06-10T03:56:31;97507.81;;;17.55;59.06
47374;BME280;33123;50.118;10.272;2023-06-10T03:58:58;97501.56;;;17.59;59.04
47374;BME280;33123;50.118;10.272;2023-06-10T04:01:25;97509.19;;;17.66;58.74
47374;BME280;33123;50.118;10.272;2023-06-10T04:03:52;97508.59;;;17.69;58.91
47374;BME280;33123;50.118;10.272;2023-06-10T04:06:19;97513.06;;;17.74;58.74
47374;BME280;33123;50.118;10.272;2023-06-10T04:08:48;97510.63;;;17.77;58.72
47374;BME280;33123;50.118;10.272;2023-06-10T04:11:16;97510.22;;;17.84;58.09
47374;BME280;33123;50.118;10.272;2023-06-10T04:13:42;97511.38;;;17.91;57.90
47374;BME280;33123;50.118;10.272;2023-06-10T04:16:09;97509.59;;;18.01;57.60
47374;BME280;33123;50.118;10.272;2023-06-10T04:18:35;97505.13;;;18.10;57.33
47374;BME280;33123;50.118;10.272;2023-06-10T04:21:02;97512.91;;;18.20;57.63
47374;BME280;33123;50.118;10.272;2023-06-10T04:23:31;97513.31;;;18.27;57.40
47374;BME280;33123;50.118;10.272;2023-06-10T04:26:04;97505.78;;;18.29;57.14
47374;BME280;33123;50.118;10.272;2023-06-10T04:28:33;97509.34;;;18.38;57.42
47374;BME280;33123;50.118;10.272;2023-06-10T04:31:01;97510.97;;;18.48;56.65
47374;BME280;33123;50.118;10.272;2023-06-10T04:33:29;97518.75;;;18.58;56.91
47374;BME280;33123;50.118;10.272;2023-06-10T04:35:55;97515.97;;;18.63;56.39
47374;BME280;33123;50.118;10.272;2023-06-10T04:38:23;97522.75;;;18.83;56.87
47374;BME280;33123;50.118;10.272;2023-06-10T04:40:49;97523.00;;;18.95;55.89
47374;BME280;33123;50.118;10.272;2023-06-10T04:43:16;97519.63;;;19.12;54.91
47374;BME280;33123;50.118;10.272;2023-06-10T04:45:44;97528.84;;;19.29;55.65
47374;BME280;33123;50.118;10.272;2023-06-10T04:48:10;97520.91;;;19.46;54.47
47374;BME280;33123;50.118;10.272;2023-06-10T04:50:37;97521.78;;;19.64;54.51
47374;BME280;33123;50.118;10.272;2023-06-10T04:53:04;97519.19;;;19.81;54.02
47374;BME280;33123;50.118;10.272;2023-06-10T04:55:31;97518.75;;;19.96;52.97
47374;BME280;33123;50.118;10.272;2023-06-10T04:57:58;97515.97;;;20.19;52.80
47374;BME280;33123;50.118;10.272;2023-06-10T05:00:25;97512.22;;;20.37;52.35
47374;BME280;33123;50.118;10.272;2023-06-10T05:02:53;97515.09;;;20.49;51.68
47374;BME280;33123;50.118;10.272;2023-06-10T05:05:21;97524.22;;;20.74;50.99
47374;BME280;33123;50.118;10.272;2023-06-10T05:07:48;97517.28;;;20.91;51.12
47374;BME280;33123;50.118;10.272;2023-06-10T05:10:15;97530.66;;;21.17;50.42
47374;BME280;33123;50.118;10.272;2023-06-10T05:12:42;97524.59;;;21.37;49.61
47374;BME280;33123;50.118;10.272;2023-06-10T05:15:09;97523.91;;;21.57;49.25
47374;BME280;33123;50.118;10.272;2023-06-10T05:17:36;97528.41;;;21.83;48.54
47374;BME280;33123;50.118;10.272;2023-06-10T05:20:05;97532.72;;;22.05;48.39
47374;BME280;33123;50.118;10.272;2023-06-10T05:22:33;97530.72;;;22.23;47.38
47374;BME280;33123;50.118;10.272;2023-06-10T05:25:00;97532.31;;;22.45;47.51
47374;BME280;33123;50.118;10.272;2023-06-10T05:27:26;97532.97;;;22.62;46.67
47374;BME280;33123;50.118;10.272;2023-06-10T05:29:53;97535.84;;;22.78;46.47
47374;BME280;33123;50.118;10.272;2023-06-10T05:32:19;97530.47;;;22.99;46.46
47374;BME280;33123;50.118;10.272;2023-06-10T05:34:46;97535.13;;;23.23;45.23
47374;BME280;33123;50.118;10.272;2023-06-10T05:37:14;97540.47;;;23.44;46.11
47374;BME280;33123;50.118;10.272;2023-06-10T05:39:40;97539.38;;;23.69;45.47
47374;BME280;33123;50.118;10.272;2023-06-10T05:42:08;97543.53;;;23.91;44.40
47374;BME280;33123;50.118;10.272;2023-06-10T05:44:35;97538.16;;;24.16;44.30
47374;BME280;33123;50.118;10.272;2023-06-10T05:47:02;97542.75;;;24.40;43.79
47374;BME280;33123;50.118;10.272;2023-06-10T05:49:29;97538.00;;;24.61;42.38
47374;BME280;33123;50.118;10.272;2023-06-10T05:51:55;97540.59;;;24.86;42.61
47374;BME280;33123;50.118;10.272;2023-06-10T05:54:25;97539.75;;;25.10;42.00
47374;BME280;33123;50.118;10.272;2023-06-10T05:56:52;97541.69;;;25.25;42.06
47374;BME280;33123;50.118;10.272;2023-06-10T05:59:18;97541.69;;;25.41;41.06
47374;BME280;33123;50.118;10.272;2023-06-10T06:01:45;97542.94;;;25.59;41.58
47374;BME280;33123;50.118;10.272;2023-06-10T06:04:12;97549.59;;;25.77;40.91
47374;BME280;33123;50.118;10.272;2023-06-10T06:06:39;97546.44;;;25.91;40.62
47374;BME280;33123;50.118;10.272;2023-06-10T06:09:06;97544.31;;;26.16;40.34
47374;BME280;33123;50.118;10.272;2023-06-10T06:11:34;97543.94;;;26.33;39.58
47374;BME280;33123;50.118;10.272;2023-06-10T06:14:01;97545.22;;;26.55;38.30
47374;BME280;33123;50.118;10.272;2023-06-10T06:16:27;97544.72;;;26.69;38.46
47374;BME280;33123;50.118;10.272;2023-06-10T06:18:54;97547.06;;;26.90;38.87
47374;BME280;33123;50.118;10.272;2023-06-10T06:21:21;97548.66;;;27.10;38.87
47374;BME280;33123;50.118;10.272;2023-06-10T06:23:47;97546.03;;;27.37;38.70
47374;BME280;33123;50.118;10.272;2023-06-10T06:26:14;97549.28;;;27.69;38.17
47374;BME280;33123;50.118;10.272;2023-06-10T06:28:42;97547.25;;;27.85;38.25
47374;BME280;33123;50.118;10.272;2023-06-10T06:31:14;97560.31;;;28.29;37.65
47374;BME280;33123;50.118;10.272;2023-06-10T06:33:41;97557.59;;;28.56;36.15
47374;BME280;33123;50.118;10.272;2023-06-10T06:36:08;97560.47;;;28.70;35.79
47374;BME280;33123;50.118;10.272;2023-06-10T06:38:34;97556.09;;;28.92;35.83
47374;BME280;33123;50.118;10.272;2023-06-10T06:41:01;97553.22;;;29.08;35.42
47374;BME280;33123;50.118;10.272;2023-06-10T06:43:31;97561.59;;;29.29;35.75
47374;BME280;33123;50.118;10.272;2023-06-10T06:45:59;97562.19;;;29.49;34.97
47374;BME280;33123;50.118;10.272;2023-06-10T06:48:25;97559.69;;;29.74;34.58
47374;BME280;33123;50.118;10.272;2023-06-10T06:50:52;97564.19;;;30.00;34.50
47374;BME280;33123;50.118;10.272;2023-06-10T06:53:19;97567.53;;;30.34;33.96
47374;BME280;33123;50.118;10.272;2023-06-10T06:55:45;97562.22;;;30.56;33.40
47374;BME280;33123;50.118;10.272;2023-06-10T06:58:12;97558.09;;;30.83;33.51
47374;BME280;33123;50.118;10.272;2023-06-10T07:00:38;97566.75;;;31.07;32.95
47374;BME280;33123;50.118;10.272;2023-06-10T07:03:06;97563.34;;;31.38;32.11
47374;BME280;33123;50.118;10.272;2023-06-10T07:05:33;97548.59;;;31.50;31.71
47374;BME280;33123;50.118;10.272;2023-06-10T07:08:00;97562.63;;;31.77;32.54
47374;BME280;33123;50.118;10.272;2023-06-10T07:10:27;97568.09;;;31.88;30.43
47374;BME280;33123;50.118;10.272;2023-06-10T07:12:53;97567.31;;;31.94;29.91
47374;BME280;33123;50.118;10.272;2023-06-10T07:15:20;97559.53;;;31.82;30.46
47374;BME280;33123;50.118;10.272;2023-06-10T07:17:47;97555.22;;;31.60;30.51
47374;BME280;33123;50.118;10.272;2023-06-10T07:20:15;97550.16;;;31.54;31.69
47374;BME280;33123;50.118;10.272;2023-06-10T07:22:43;97553.25;;;31.46;31.44
47374;BME280;33123;50.118;10.272;2023-06-10T07:25:09;97548.19;;;31.51;31.79
47374;BME280;33123;50.118;10.272;2023-06-10T07:27:36;97557.91;;;31.45;31.70
47374;BME280;33123;50.118;10.272;2023-06-10T07:30:04;97550.91;;;31.51;31.97
47374;BME280;33123;50.118;10.272;2023-06-10T07:32:33;97558.31;;;31.69;30.80
47374;BME280;33123;50.118;10.272;2023-06-10T07:35:00;97556.75;;;31.75;31.30
47374;BME280;33123;50.118;10.272;2023-06-10T07:37:28;97560.31;;;31.93;30.21
47374;BME280;33123;50.118;10.272;2023-06-10T07:39:56;97555.63;;;32.01;29.78
47374;BME280;33123;50.118;10.272;2023-06-10T07:42:22;97556.00;;;31.92;29.79
47374;BME280;33123;50.118;10.272;2023-06-10T07:44:49;97556.38;;;32.09;29.91
47374;BME280;33123;50.118;10.272;2023-06-10T07:50:56;97547.72;;;32.56;29.71
47374;BME280;33123;50.118;10.272;2023-06-10T07:53:24;97559.81;;;32.55;28.42
47374;BME280;33123;50.118;10.272;2023-06-10T07:55:50;97559.44;;;32.61;29.05
47374;BME280;33123;50.118;10.272;2023-06-10T07:58:17;97558.25;;;32.65;29.55
47374;BME280;33123;50.118;10.272;2023-06-10T08:00:43;97561.38;;;32.56;29.14
47374;BME280;33123;50.118;10.272;2023-06-10T08:03:10;97556.34;;;32.30;28.75
47374;BME280;33123;50.118;10.272;2023-06-10T08:05:37;97550.53;;;32.14;29.51
47374;BME280;33123;50.118;10.272;2023-06-10T08:08:04;97556.41;;;31.91;30.17
47374;BME280;33123;50.118;10.272;2023-06-10T08:10:31;97566.16;;;31.99;29.41
47374;BME280;33123;50.118;10.272;2023-06-10T08:12:58;97558.34;;;31.90;29.09
47374;BME280;33123;50.118;10.272;2023-06-10T08:15:25;97558.72;;;32.06;29.51
47374;BME280;33123;50.118;10.272;2023-06-10T08:17:51;97552.88;;;32.22;29.81
47374;BME280;33123;50.118;10.272;2023-06-10T08:20:18;97562.59;;;32.41;28.68
47374;BME280;33123;50.118;10.272;2023-06-10T08:22:45;97555.50;;;32.65;29.52
47374;BME280;33123;50.118;10.272;2023-06-10T08:25:11;97555.88;;;32.67;29.04
47374;BME280;33123;50.118;10.272;2023-06-10T08:27:39;97562.56;;;32.30;29.35
47374;BME280;33123;50.118;10.272;2023-06-10T08:30:07;97552.88;;;32.08;29.39
47374;BME280;33123;50.118;10.272;2023-06-10T08:32:35;97556.00;;;31.85;29.83
47374;BME280;33123;50.118;10.272;2023-06-10T08:35:03;97552.91;;;31.83;30.21
47374;BME280;33123;50.118;10.272;2023-06-10T08:37:29;97554.03;;;31.78;29.58
47374;BME280;33123;50.118;10.272;2023-06-10T08:39:56;97538.47;;;31.79;30.30
47374;BME280;33123;50.118;10.272;2023-06-10T08:42:24;97543.94;;;32.00;30.60
47374;BME280;33123;50.118;10.272;2023-06-10T08:44:55;97542.75;;;32.16;29.13
47374;BME280;33123;50.118;10.272;2023-06-10T08:47:23;97545.47;;;31.98;28.80
47374;BME280;33123;50.118;10.272;2023-06-10T08:49:50;97535.38;;;31.98;29.75
47374;BME280;33123;50.118;10.272;2023-06-10T08:52:19;97539.59;;;32.24;30.29
47374;BME280;33123;50.118;10.272;2023-06-10T08:54:49;97546.22;;;32.45;29.89
47374;BME280;33123;50.118;10.272;2023-06-10T08:57:18;97544.97;;;32.64;28.87
47374;BME280;33123;50.118;10.272;2023-06-10T08:59:47;97532.50;;;32.66;28.77
47374;BME280;33123;50.118;10.272;2023-06-10T09:02:15;97539.06;;;32.76;28.48
47374;BME280;33123;50.118;10.272;2023-06-10T09:04:45;97512.22;;;32.64;28.80
47374;BME280;33123;50.118;10.272;2023-06-10T09:07:13;97525.75;;;32.92;27.98
47374;BME280;33123;50.118;10.272;2023-06-10T09:09:41;97540.06;;;33.18;28.94
47374;BME280;33123;50.118;10.272;2023-06-10T09:12:09;97520.00;;;33.49;28.16
47374;BME280;33123;50.118;10.272;2023-06-10T09:14:36;97522.16;;;33.72;27.41
47374;BME280;33123;50.118;10.272;2023-06-10T09:17:03;97518.38;;;33.55;27.14
47374;BME280;33123;50.118;10.272;2023-06-10T09:19:31;97518.91;;;33.88;28.29
47374;BME280;33123;50.118;10.272;2023-06-10T09:21:58;97511.66;;;34.12;27.20
47374;BME280;33123;50.118;10.272;2023-06-10T09:24:25;97504.06;;;34.27;26.65
47374;BME280;33123;50.118;10.272;2023-06-10T09:27:02;97513.06;;;34.61;26.90
47374;BME280;33123;50.118;10.272;2023-06-10T09:29:29;97499.69;;;34.71;26.63
47374;BME280;33123;50.118;10.272;2023-06-10T09:31:55;97507.66;;;34.88;26.05
47374;BME280;33123;50.118;10.272;2023-06-10T09:34:25;97507.59;;;34.92;25.54
47374;BME280;33123;50.118;10.272;2023-06-10T09:36:53;97501.06;;;35.13;25.80
47374;BME280;33123;50.118;10.272;2023-06-10T09:39:21;97497.53;;;35.39;25.83
47374;BME280;33123;50.118;10.272;2023-06-10T09:41:48;97497.66;;;35.32;24.57
47374;BME280;33123;50.118;10.272;2023-06-10T09:44:16;97502.59;;;35.44;24.97
47374;BME280;33123;50.118;10.272;2023-06-10T09:46:45;97499.41;;;35.69;25.04
47374;BME280;33123;50.118;10.272;2023-06-10T09:49:12;97497.16;;;35.88;23.79
47374;BME280;33123;50.118;10.272;2023-06-10T09:51:49;97502.28;;;35.86;24.00
47374;BME280;33123;50.118;10.272;2023-06-10T09:54:17;97497.66;;;35.59;23.74
47374;BME280;33123;50.118;10.272;2023-06-10T09:56:47;97498.19;;;35.97;24.15
47374;BME280;33123;50.118;10.272;2023-06-10T09:59:14;97490.19;;;36.07;23.03
47374;BME280;33123;50.118;10.272;2023-06-10T10:01:41;97499.31;;;36.20;23.37
47374;BME280;33123;50.118;10.272;2023-06-10T10:04:07;97507.41;;;36.07;22.90
47374;BME280;33123;50.118;10.272;2023-06-10T10:06:35;97495.72;;;36.03;23.55
47374;BME280;33123;50.118;10.272;2023-06-10T10:09:02;97497.50;;;35.90;23.12
47374;BME280;33123;50.118;10.272;2023-06-10T10:11:32;97496.91;;;35.79;22.46
47374;BME280;33123;50.118;10.272;2023-06-10T10:14:03;97492.19;;;36.03;23.75
47374;BME280;33123;50.118;10.272;2023-06-10T10:16:36;97488.50;;;36.33;23.92
47374;BME280;33123;50.118;10.272;2023-06-10T10:19:07;97495.34;;;36.64;22.55
47374;BME280;33123;50.118;10.272;2023-06-10T10:21:38;97489.34;;;36.89;22.87
47374;BME280;33123;50.118;10.272;2023-06-10T10:24:09;97487.50;;;36.83;21.83
47374;BME280;33123;50.118;10.272;2023-06-10T10:26:40;97485.59;;;36.99;22.20
47374;BME280;33123;50.118;10.272;2023-06-10T10:29:11;97496.53;;;36.83;21.91
47374;BME280;33123;50.118;10.272;2023-06-10T10:31:42;97492.84;;;36.54;21.87
47374;BME280;33123;50.118;10.272;2023-06-10T10:34:13;97484.66;;;36.50;22.99
47374;BME280;33123;50.118;10.272;2023-06-10T10:36:42;97481.69;;;36.61;23.89
47374;BME280;33123;50.118;10.272;2023-06-10T10:39:09;97479.28;;;36.83;22.64
47374;BME280;33123;50.118;10.272;2023-06-10T10:41:36;97482.66;;;36.90;22.57
47374;BME280;33123;50.118;10.272;2023-06-10T10:44:06;97480.81;;;36.84;22.50
47374;BME280;33123;50.118;10.272;2023-06-10T10:46:42;97485.63;;;36.40;22.32
47374;BME280;33123;50.118;10.272;2023-06-10T10:49:10;97475.06;;;36.18;23.16
47374;BME280;33123;50.118;10.272;2023-06-10T10:51:54;97465.22;;;35.78;23.39
47374;BME280;33123;50.118;10.272;2023-06-10T10:54:28;97455.81;;;35.55;23.62
47374;BME280;33123;50.118;10.272;2023-06-10T10:57:14;97471.34;;;35.62;23.43
47374;BME280;33123;50.118;10.272;2023-06-10T10:59:46;97472.47;;;35.88;24.80
47374;BME280;33123;50.118;10.272;2023-06-10T11:02:17;97467.59;;;36.19;23.77
47374;BME280;33123;50.118;10.272;2023-06-10T11:04:45;97462.81;;;36.23;22.24
47374;BME280;33123;50.118;10.272;2023-06-10T11:07:12;97455.91;;;36.35;23.22
47374;BME280;33123;50.118;10.272;2023-06-10T11:09:57;97467.59;;;36.19;22.31
47374;BME280;33123;50.118;10.272;2023-06-10T11:12:24;97462.94;;;35.96;23.03
47374;BME280;33123;50.118;10.272;2023-06-10T11:14:55;97470.00;;;35.50;23.79
47374;BME280;33123;50.118;10.272;2023-06-10T11:17:21;97471.03;;;35.33;24.78
47374;BME280;33123;50.118;10.272;2023-06-10T11:19:48;97449.56;;;34.43;24.38
47374;BME280;33123;50.118;10.272;2023-06-10T11:22:17;97463.09;;;34.20;25.82
47374;BME280;33123;50.118;10.272;2023-06-10T11:24:47;97462.09;;;34.06;26.15
47374;BME280;33123;50.118;10.272;2023-06-10T11:27:15;97456.22;;;33.67;25.65
47374;BME280;33123;50.118;10.272;2023-06-10T11:29:57;97463.44;;;33.39;25.72
47374;BME280;33123;50.118;10.272;2023-06-10T11:32:23;97462.47;;;33.12;26.86
47374;BME280;33123;50.118;10.272;2023-06-10T11:34:52;97450.44;;;33.05;26.17
47374;BME280;33123;50.118;10.272;2023-06-10T11:37:20;97467.28;;;32.93;26.55
47374;BME280;33123;50.118;10.272;2023-06-10T11:39:47;97461.78;;;33.00;26.22
47374;BME280;33123;50.118;10.272;2023-06-10T11:42:17;97472.84;;;32.68;26.75
47374;BME280;33123;50.118;10.272;2023-06-10T11:44:48;97472.84;;;32.68;26.41
47374;BME280;33123;50.118;10.272;2023-06-10T11:47:16;97464.59;;;32.79;27.15
47374;BME280;33123;50.118;10.272;2023-06-10T11:49:43;97457.91;;;32.94;27.60
47374;BME280;33123;50.118;10.272;2023-06-10T11:52:10;97451.06;;;33.24;26.32
47374;BME280;33123;50.118;10.272;2023-06-10T11:55:11;97460.59;;;33.53;26.50
47374;BME280;33123;50.118;10.272;2023-06-10T11:57:37;97456.44;;;33.83;25.81
47374;BME280;33123;50.118;10.272;2023-06-10T12:00:05;97457.13;;;33.91;24.78
47374;BME280;33123;50.118;10.272;2023-06-10T12:02:34;97473.22;;;33.85;25.61
47374;BME280;33123;50.118;10.272;2023-06-10T12:12:22;97465.28;;;32.97;26.04
47374;BME280;33123;50.118;10.272;2023-06-10T12:14:53;97468.25;;;32.47;26.10
47374;BME280;33123;50.118;10.272;2023-06-10T12:17:22;97459.00;;;32.13;26.74
47374;BME280;33123;50.118;10.272;2023-06-10T12:19:51;97461.78;;;31.98;27.97
47374;BME280;33123;50.118;10.272;2023-06-10T12:22:18;97456.72;;;31.93;27.57
47374;BME280;33123;50.118;10.272;2023-06-10T12:24:56;97447.69;;;32.14;28.86
47374;BME280;33123;50.118;10.272;2023-06-10T12:27:24;97457.78;;;32.35;26.95
47374;BME280;33123;50.118;10.272;2023-06-10T12:29:52;97464.38;;;32.48;27.28
47374;BME280;33123;50.118;10.272;2023-06-10T12:32:20;97457.75;;;32.42;26.95
47374;BME280;33123;50.118;10.272;2023-06-10T12:35:02;97447.25;;;32.33;26.48
47374;BME280;33123;50.118;10.272;2023-06-10T12:37:29;97444.16;;;32.28;26.75
47374;BME280;33123;50.118;10.272;2023-06-10T12:40:00;97438.66;;;32.42;27.16
47374;BME280;33123;50.118;10.272;2023-06-10T12:42:27;97442.47;;;32.59;28.03
47374;BME280;33123;50.118;10.272;2023-06-10T12:44:55;97436.28;;;32.55;26.40
47374;BME280;33123;50.118;10.272;2023-06-10T12:47:29;97441.69;;;32.58;26.60
47374;BME280;33123;50.118;10.272;2023-06-10T12:49:59;97439.72;;;32.63;26.98
47374;BME280;33123;50.118;10.272;2023-06-10T12:52:26;97425.00;;;32.42;26.62
47374;BME280;33123;50.118;10.272;2023-06-10T12:54:52;97432.31;;;32.67;27.56
47374;BME280;33123;50.118;10.272;2023-06-10T12:57:20;97431.13;;;32.64;26.54
47374;BME280;33123;50.118;10.272;2023-06-10T12:59:46;97426.50;;;32.57;26.73
47374;BME280;33123;50.118;10.272;2023-06-10T13:02:18;97433.88;;;32.64;27.25
47374;BME280;33123;50.118;10.272;2023-06-10T13:04:49;97437.41;;;32.57;26.95
47374;BME280;33123;50.118;10.272;2023-06-10T13:07:17;97440.25;;;32.25;27.20
47374;BME280;33123;50.118;10.272;2023-06-10T13:09:44;97442.72;;;31.77;27.87